Pagrindinis puslapis
METAR-TAF:

METAR-TAF

Oro uostai :

Pittsburgh International Airport

Pitsburgas, Pensilvanija, Jungtinės Amerikos Valstijos

platuma: 40-30-14N, ilguma: 080-15-59W, Aukštis: 366 m

Dabartinis oras

Ataskaita buvo paskelbta 13 minutes, ne 23:51 UTC
Vėjas 9 kt iš Šiaurės/Šiaurės Vakarų
Temperatūra 10°C
Drėgmė 76%
Slėgis 1019 hPa
Matomumas: 16.1 km
Su prošvaistėmis ne aukštis 2900 ft
Apsiniaukę ne aukštis 5000 ft

METAR: KPIT 052351Z 34009KT 10SM BKN029 OVC050 10/06 A3008 RMK AO2 SLP196 60001 T01000056 10178 20100 51014

Laikas: 20:04 (00:04 UTC)

Prognozė

Ataskaita buvo paskelbta 44 minutes, ne 23:20 UTC
Prognozė galioja nuo 06 metu 00 UTC su 07 metu 06 UTC
Vėjas 5 kt iš Šiaurės/Šiaurės Vakarų
Matomumas: 10 km
Išsisklaidę debesys ne aukštis 6000 ft
Nuo 06 metu 2200 UTC
Vėjas 3 kt nuo kintamojo kryptimis
Matomumas: 10 km
Išsisklaidę debesys ne aukštis 10000 ft

TAF: KPIT 052320Z 0600/0706 34005KT P6SM SCT060 FM062200 VRB03KT P6SM SCT100

Orai ataskaitas ir orų prognozės (METAR, TAF).

turimą stotys yra geltonos ir raudonos taškus žemėlapyje.

Perkelti pele per norėdami pamatyti stoties vardą.

Tada spustelėkite, norėdami matyti oro stebėjimo ir prognozės.

Norėdami pakeisti žemėlapį: spustelėkite ant žalios mygtukų su juodo kryžiaus žemyn,; žalią mygtuką su brūkšneliu, jei norite nutolinti; arba žalių rodyklių gretimoms žemėlapius.


METAR-TAF: